createdAt,value
2022-08-03T00:02:19.607Z,99992.19
2022-08-03T00:04:46.713Z,99979.09
2022-08-03T00:07:14.139Z,99982.50
2022-08-03T00:09:41.142Z,99990.28
2022-08-03T00:12:08.823Z,99990.38
2022-08-03T00:14:36.012Z,99989.31
2022-08-03T00:17:03.484Z,99979.84
2022-08-03T00:19:30.397Z,99985.97
2022-08-03T00:21:57.747Z,99953.00
2022-08-03T00:24:24.729Z,99993.91
2022-08-03T00:26:52.130Z,99990.38
2022-08-03T00:29:19.356Z,99975.81
2022-08-03T00:31:59.164Z,99995.00
2022-08-03T00:34:36.670Z,99994.03
2022-08-03T00:37:14.706Z,99990.66
2022-08-03T00:39:52.667Z,99979.28
2022-08-03T00:42:59.852Z,99973.47
2022-08-03T00:45:33.107Z,99956.34
2022-08-03T00:48:01.590Z,100000.81
2022-08-03T00:50:30.302Z,99977.91
2022-08-03T00:52:59.730Z,99987.63
2022-08-03T00:55:26.777Z,99978.94
2022-08-03T00:57:54.547Z,99972.91
2022-08-03T01:00:25.010Z,99978.94
2022-08-03T01:02:53.481Z,99980.03
2022-08-03T01:05:23.289Z,99995.91
2022-08-03T01:07:50.150Z,99976.38
2022-08-03T01:10:47.919Z,99969.31
2022-08-03T01:14:03.716Z,99977.00
2022-08-03T01:16:20.383Z,99978.09
2022-08-03T01:18:59.956Z,99971.09
2022-08-03T01:21:52.760Z,99988.09
2022-08-03T01:24:32.010Z,99975.63
2022-08-03T01:27:05.485Z,99981.03
2022-08-03T01:29:58.605Z,99974.03
2022-08-03T01:32:59.695Z,99965.13
2022-08-03T01:35:54.875Z,99985.66
2022-08-03T01:38:29.486Z,99969.16
2022-08-03T01:40:58.029Z,99987.56
2022-08-03T01:44:28.093Z,99965.72
2022-08-03T01:46:20.679Z,99969.06
2022-08-03T01:48:49.419Z,99982.16
2022-08-03T01:51:20.177Z,99976.84
2022-08-03T01:53:49.303Z,99955.00
2022-08-03T01:56:17.987Z,99986.19
2022-08-03T01:58:48.735Z,99984.22
2022-08-03T02:01:17.274Z,99995.59
2022-08-03T02:03:59.867Z,99967.59
2022-08-03T02:07:02.625Z,99986.59
2022-08-03T02:09:22.895Z,99989.09
2022-08-03T02:11:51.995Z,99989.66
2022-08-03T02:14:21.830Z,99993.47
2022-08-03T02:16:49.713Z,99982.53
2022-08-03T02:19:18.431Z,99952.09
2022-08-03T02:21:56.335Z,99950.16
2022-08-03T02:24:27.976Z,99989.69
2022-08-03T02:26:57.004Z,99983.19
2022-08-03T02:29:39.315Z,99994.22
2022-08-03T02:32:13.131Z,99985.72
2022-08-03T02:34:46.419Z,99988.00
2022-08-03T02:37:15.069Z,99999.28
2022-08-03T02:39:44.115Z,99992.69
2022-08-03T02:42:14.666Z,99997.16
2022-08-03T02:44:48.575Z,99946.50
2022-08-03T02:47:16.133Z,99997.13
2022-08-03T02:49:50.724Z,99994.94
2022-08-03T02:52:26.787Z,99988.81
2022-08-03T02:55:05.339Z,99978.50
2022-08-03T02:57:39.400Z,99963.56
2022-08-03T03:00:08.818Z,99994.13
2022-08-03T03:02:40.761Z,99985.44
2022-08-03T03:05:53.626Z,99968.50
2022-08-03T03:08:00.014Z,99971.34
2022-08-03T03:10:28.821Z,99983.75
2022-08-03T03:12:57.726Z,99919.19
2022-08-03T03:15:26.683Z,99987.59
2022-08-03T03:17:55.049Z,99987.72
2022-08-03T03:20:30.036Z,100000.94
2022-08-03T03:23:01.691Z,99991.91
2022-08-03T03:25:31.972Z,99989.66
2022-08-03T03:28:00.763Z,99951.28
2022-08-03T03:30:30.033Z,99988.47
2022-08-03T03:33:03.058Z,99980.94
2022-08-03T03:35:31.183Z,99988.84
2022-08-03T03:38:09.699Z,99986.34
2022-08-03T03:40:37.615Z,99996.25
2022-08-03T03:43:09.786Z,99988.00
2022-08-03T03:45:37.992Z,99995.09
2022-08-03T03:48:05.981Z,99994.06
2022-08-03T03:50:35.196Z,99999.44
2022-08-03T03:53:02.905Z,99988.47
2022-08-03T03:55:30.598Z,100002.53
2022-08-03T03:57:57.683Z,99996.69
2022-08-03T04:00:24.874Z,100011.22
2022-08-03T04:02:51.823Z,100005.34
2022-08-03T04:05:37.821Z,100001.31
2022-08-03T04:08:29.387Z,99983.50
2022-08-03T04:11:11.968Z,100011.13
2022-08-03T04:13:44.200Z,100003.88
2022-08-03T04:16:15.116Z,100023.03
2022-08-03T04:18:44.981Z,99999.78
2022-08-03T04:21:14.410Z,100028.69
2022-08-03T04:23:44.759Z,100016.84
2022-08-03T04:26:15.366Z,100016.34
2022-08-03T04:28:46.160Z,100017.09
2022-08-03T04:31:15.581Z,100007.16
2022-08-03T04:33:43.945Z,100019.28
2022-08-03T04:36:16.660Z,99984.94
2022-08-03T04:39:07.806Z,100019.88
2022-08-03T04:42:02.189Z,100008.00
2022-08-03T04:44:28.501Z,100026.09
2022-08-03T04:46:58.171Z,100012.59
2022-08-03T04:49:25.534Z,100016.72
2022-08-03T04:51:53.270Z,100037.84
2022-08-03T04:54:20.562Z,100035.28
2022-08-03T04:56:47.703Z,100036.53
2022-08-03T04:59:14.768Z,100027.13
2022-08-03T05:01:44.650Z,100036.25
2022-08-03T05:04:11.747Z,100022.09
2022-08-03T05:06:47.847Z,100021.69
2022-08-03T05:09:16.058Z,100038.44
2022-08-03T05:12:03.024Z,100034.31
2022-08-03T05:14:30.553Z,100041.72
2022-08-03T05:17:00.391Z,100030.22
2022-08-03T05:19:27.403Z,100025.63
2022-08-03T05:21:54.619Z,100014.44
2022-08-03T05:24:21.509Z,100033.66
2022-08-03T05:26:48.379Z,99977.28
2022-08-03T05:29:15.497Z,100037.34
2022-08-03T05:31:42.488Z,100024.28
2022-08-03T05:34:09.340Z,100037.94
2022-08-03T05:36:36.461Z,100032.28
2022-08-03T05:39:03.422Z,100033.56
2022-08-03T05:41:37.121Z,100035.88
2022-08-03T05:44:05.298Z,100025.91
2022-08-03T05:46:32.308Z,100035.38
2022-08-03T05:48:59.437Z,100031.31
2022-08-03T05:51:26.696Z,100043.19
2022-08-03T05:53:53.811Z,100038.34
2022-08-03T05:56:25.265Z,100031.00
2022-08-03T05:58:53.559Z,99989.59
2022-08-03T06:01:24.593Z,100040.94
2022-08-03T06:03:52.933Z,100035.66
2022-08-03T06:06:20.028Z,100039.00
2022-08-03T06:08:48.874Z,100042.13
2022-08-03T06:11:16.675Z,100031.78
2022-08-03T06:13:44.250Z,100032.34
2022-08-03T06:16:12.144Z,100030.44
2022-08-03T06:18:44.194Z,100030.91
2022-08-03T06:21:15.150Z,100027.81
2022-08-03T06:23:53.962Z,100020.59
2022-08-03T06:26:25.819Z,100025.78
2022-08-03T06:28:55.429Z,100020.09
2022-08-03T06:31:33.090Z,100031.56
2022-08-03T06:34:33.441Z,99997.28
2022-08-03T06:37:01.291Z,100036.16
2022-08-03T06:39:30.415Z,100030.91
2022-08-03T06:42:02.511Z,100033.38
2022-08-03T06:44:29.685Z,100023.34
2022-08-03T06:46:57.027Z,100028.72
2022-08-03T06:49:24.128Z,100046.75
2022-08-03T06:52:03.277Z,100035.78
2022-08-03T06:54:35.680Z,100032.13
2022-08-03T06:57:08.586Z,99997.06
2022-08-03T07:00:06.621Z,100031.28
2022-08-03T07:02:33.613Z,100039.50
2022-08-03T07:05:01.310Z,100015.84
2022-08-03T07:07:30.156Z,100019.97
2022-08-03T07:09:58.270Z,100046.53
2022-08-03T07:12:26.882Z,100036.44
2022-08-03T07:14:58.190Z,100041.16
2022-08-03T07:17:29.064Z,100044.16
2022-08-03T07:19:56.746Z,100006.50
2022-08-03T07:22:23.938Z,100016.47
2022-08-03T07:24:50.866Z,100043.94
2022-08-03T07:27:18.070Z,100041.22
2022-08-03T07:29:44.947Z,100032.69
2022-08-03T07:32:12.181Z,100044.56
2022-08-03T07:34:39.059Z,100006.09
2022-08-03T07:37:06.176Z,100043.00
2022-08-03T07:39:33.499Z,100045.25
2022-08-03T07:42:00.731Z,100032.44
2022-08-03T07:44:27.541Z,100004.75
2022-08-03T07:46:54.800Z,100056.63
2022-08-03T07:49:23.797Z,100034.19
2022-08-03T07:52:11.098Z,100052.41
2022-08-03T07:54:38.381Z,100039.88
2022-08-03T07:57:05.766Z,100051.91
2022-08-03T07:59:56.665Z,100052.03
2022-08-03T08:02:22.355Z,100021.25
2022-08-03T08:04:49.251Z,100053.16
2022-08-03T08:07:16.226Z,100018.88
2022-08-03T08:09:45.351Z,100058.41
2022-08-03T08:12:15.570Z,100046.53
2022-08-03T08:14:45.877Z,100064.66
2022-08-03T08:17:14.043Z,100052.78
2022-08-03T08:19:42.773Z,100044.72
2022-08-03T08:22:25.845Z,100054.06
2022-08-03T08:24:59.363Z,100032.94
2022-08-03T08:27:27.773Z,100046.34
2022-08-03T08:29:58.847Z,100048.53
2022-08-03T08:32:29.989Z,100050.84
2022-08-03T08:34:57.855Z,100050.75
2022-08-03T08:37:24.873Z,100055.09
2022-08-03T08:39:52.005Z,100064.41
2022-08-03T08:42:19.004Z,100042.00
2022-08-03T08:44:45.985Z,99966.25
2022-08-03T08:47:15.270Z,100020.69
2022-08-03T08:49:53.556Z,100047.28
2022-08-03T08:52:32.025Z,100027.38
2022-08-03T08:55:03.930Z,100053.31
2022-08-03T08:57:43.320Z,100051.88
2022-08-03T09:00:14.209Z,100039.94
2022-08-03T09:02:43.137Z,100051.03
2022-08-03T09:05:31.461Z,100051.88
2022-08-03T09:08:07.966Z,100060.56
2022-08-03T09:10:35.280Z,100033.47
2022-08-03T09:13:02.494Z,100050.91
2022-08-03T09:15:32.283Z,100049.91
2022-08-03T09:18:01.015Z,100055.94
2022-08-03T09:20:31.124Z,100055.44
2022-08-03T09:23:19.089Z,100053.81
2022-08-03T09:25:59.858Z,100056.72
2022-08-03T09:29:00.830Z,100060.31
2022-08-03T09:31:45.058Z,100057.63
2022-08-03T09:34:16.880Z,100056.63
2022-08-03T09:36:48.678Z,100063.22
2022-08-03T09:39:40.705Z,100053.53
2022-08-03T09:42:27.750Z,100048.97
2022-08-03T09:44:54.965Z,100044.63
2022-08-03T09:47:30.349Z,100012.50
2022-08-03T09:50:02.476Z,100047.31
2022-08-03T09:52:49.469Z,100049.41
2022-08-03T09:56:05.191Z,100019.50
2022-08-03T09:58:11.036Z,100043.16
2022-08-03T10:00:56.454Z,100040.72
2022-08-03T10:03:26.295Z,100018.25
2022-08-03T10:05:59.028Z,100047.06
2022-08-03T10:08:27.010Z,100040.97
2022-08-03T10:10:54.827Z,100048.63
2022-08-03T10:13:23.256Z,100046.53
2022-08-03T10:16:23.783Z,100047.63
2022-08-03T10:18:38.534Z,100042.22
2022-08-03T10:21:10.635Z,100016.84
2022-08-03T10:23:41.093Z,100051.38
2022-08-03T10:26:12.204Z,100025.00
2022-08-03T10:28:45.352Z,100021.81
2022-08-03T10:31:14.133Z,100058.09
2022-08-03T10:33:52.898Z,100065.53
2022-08-03T10:36:24.698Z,100008.13
2022-08-03T10:38:53.921Z,100065.34
2022-08-03T10:41:23.440Z,100057.38
2022-08-03T10:43:57.131Z,100065.03
2022-08-03T10:46:26.355Z,100034.63
2022-08-03T10:48:53.916Z,100061.56
2022-08-03T10:51:21.908Z,100069.44
2022-08-03T10:53:55.522Z,100065.03
2022-08-03T10:56:54.675Z,100062.19
2022-08-03T10:59:51.047Z,100055.13
2022-08-03T11:02:18.217Z,100014.09
2022-08-03T11:04:45.329Z,100065.28
2022-08-03T11:07:19.894Z,100033.13
2022-08-03T11:09:53.502Z,99991.88
2022-08-03T11:12:31.297Z,100008.84
2022-08-03T11:15:08.588Z,100059.69
2022-08-03T11:17:51.444Z,100070.16
2022-08-03T11:20:46.529Z,100055.00
2022-08-03T11:23:14.763Z,100067.09
2022-08-03T11:26:09.895Z,100065.84
2022-08-03T11:28:39.166Z,100045.63
2022-08-03T11:31:48.761Z,100059.50
2022-08-03T11:34:14.392Z,100060.63
2022-08-03T11:37:20.331Z,100058.78
2022-08-03T11:39:49.418Z,100063.69
2022-08-03T11:42:26.327Z,100056.66
2022-08-03T11:44:55.923Z,100067.06
2022-08-03T11:47:24.441Z,100057.00
2022-08-03T11:49:53.950Z,100019.22
2022-08-03T11:52:26.817Z,100050.47
2022-08-03T11:54:56.585Z,100054.31
2022-08-03T11:59:11.262Z,100024.00
2022-08-03T12:00:27.514Z,100026.25
2022-08-03T12:02:56.247Z,100060.38
2022-08-03T12:05:33.890Z,100051.66
2022-08-03T12:08:04.957Z,100056.31
2022-08-03T12:10:34.609Z,100061.28
2022-08-03T12:13:06.063Z,100056.44
2022-08-03T12:15:59.352Z,100061.53
2022-08-03T12:18:26.934Z,100044.34
2022-08-03T12:21:05.165Z,100050.91
2022-08-03T12:23:36.052Z,100050.69
2022-08-03T12:26:10.112Z,100043.94
2022-08-03T12:28:49.790Z,100039.41
2022-08-03T12:31:17.227Z,100021.28
2022-08-03T12:34:06.554Z,100040.69
2022-08-03T12:36:35.838Z,100016.06
2022-08-03T12:39:05.103Z,100048.91
2022-08-03T12:41:37.266Z,100052.59
2022-08-03T12:44:08.970Z,100054.47
2022-08-03T12:46:46.965Z,100057.53
2022-08-03T12:49:17.167Z,100055.78
2022-08-03T12:51:44.238Z,100056.16
2022-08-03T12:54:18.414Z,100053.25
2022-08-03T12:57:16.057Z,100053.81
2022-08-03T12:59:52.904Z,100043.91
2022-08-03T13:02:24.186Z,100045.13
2022-08-03T13:04:54.707Z,100056.28
2022-08-03T13:07:23.016Z,100062.28
2022-08-03T13:09:53.281Z,100051.59
2022-08-03T13:12:22.827Z,100056.66
2022-08-03T13:14:56.597Z,100033.22
2022-08-03T13:17:23.800Z,100054.56
2022-08-03T13:19:51.448Z,100034.84
2022-08-03T13:22:22.159Z,100068.91
2022-08-03T13:24:51.656Z,100059.09
2022-08-03T13:28:02.688Z,100054.03
2022-08-03T13:30:08.792Z,100046.09
2022-08-03T13:32:36.209Z,100061.50
2022-08-03T13:35:03.843Z,100047.34
2022-08-03T13:37:32.550Z,100052.34
2022-08-03T13:40:02.699Z,100028.09
2022-08-03T13:42:35.978Z,100043.66
2022-08-03T13:45:04.751Z,100073.13
2022-08-03T13:47:32.349Z,100048.91
2022-08-03T13:50:02.476Z,100039.47
2022-08-03T13:52:34.031Z,100054.00
2022-08-03T13:55:05.407Z,100052.88
2022-08-03T13:58:03.079Z,100056.22
2022-08-03T14:00:27.574Z,100048.38
2022-08-03T14:03:03.994Z,100049.03
2022-08-03T14:05:33.693Z,100052.47
2022-08-03T14:08:04.808Z,100054.22
2022-08-03T14:10:43.884Z,100040.03
2022-08-03T14:13:16.721Z,100051.91
2022-08-03T14:15:50.382Z,100037.63
2022-08-03T14:18:28.855Z,100030.06
2022-08-03T14:21:06.736Z,100043.91
2022-08-03T14:23:35.875Z,100056.19
2022-08-03T14:26:02.820Z,100061.16
2022-08-03T14:28:29.758Z,100056.09
2022-08-03T14:30:56.732Z,100056.69
2022-08-03T14:33:24.203Z,100044.94
2022-08-03T14:35:52.291Z,100028.97
2022-08-03T14:38:19.847Z,100053.50
2022-08-03T14:40:47.470Z,100032.22
2022-08-03T14:43:17.958Z,100052.13
2022-08-03T14:45:45.068Z,100030.47
2022-08-03T14:50:28.836Z,100051.72
2022-08-03T14:50:59.931Z,100054.31
2022-08-03T14:53:28.798Z,100056.41
2022-08-03T14:55:55.906Z,100062.88
2022-08-03T14:58:25.437Z,100061.09
2022-08-03T15:00:55.418Z,100045.78
2022-08-03T15:03:25.016Z,100056.78
2022-08-03T15:05:57.040Z,100045.72
2022-08-03T15:08:25.858Z,100060.13
2022-08-03T15:10:54.470Z,100065.03
2022-08-03T15:13:22.299Z,100073.22
2022-08-03T15:15:51.830Z,100068.50
2022-08-03T15:18:20.124Z,100073.00
2022-08-03T15:20:49.032Z,100052.25
2022-08-03T15:23:17.753Z,100064.19
2022-08-03T15:26:28.905Z,100060.63
2022-08-03T15:28:33.439Z,100012.53
2022-08-03T15:31:00.915Z,100070.41
2022-08-03T15:33:28.506Z,100019.69
2022-08-03T15:35:56.821Z,100069.97
2022-08-03T15:38:25.981Z,100061.16
2022-08-03T15:40:57.151Z,100069.44
2022-08-03T15:43:24.928Z,100072.75
2022-08-03T15:46:12.752Z,100041.25
2022-08-03T15:48:40.021Z,100080.63
2022-08-03T15:51:08.008Z,100077.69
2022-08-03T15:53:35.047Z,100085.97
2022-08-03T15:56:09.705Z,100081.75
2022-08-03T15:59:03.318Z,100075.16
2022-08-03T16:01:27.211Z,100065.13
2022-08-03T16:03:54.102Z,100086.97
2022-08-03T16:06:29.761Z,100076.53
2022-08-03T16:09:24.053Z,100041.88
2022-08-03T16:11:55.634Z,100070.19
2022-08-03T16:14:34.839Z,100063.41
2022-08-03T16:17:07.355Z,100064.16
2022-08-03T16:19:34.469Z,100047.66
2022-08-03T16:22:03.171Z,100076.69
2022-08-03T16:24:30.510Z,100063.22
2022-08-03T16:26:57.816Z,100072.13
2022-08-03T16:29:27.516Z,100074.94
2022-08-03T16:31:54.445Z,100065.69
2022-08-03T16:34:21.458Z,100079.81
2022-08-03T16:36:48.384Z,100083.34
2022-08-03T16:39:15.433Z,100081.03
2022-08-03T16:41:55.023Z,100077.97
2022-08-03T16:44:29.719Z,100070.53
2022-08-03T16:46:57.585Z,100070.44
2022-08-03T16:49:54.994Z,100081.84
2022-08-03T16:52:12.973Z,100043.78
2022-08-03T16:54:40.814Z,100087.84
2022-08-03T16:57:08.609Z,100079.53
2022-08-03T16:59:37.129Z,100081.72
2022-08-03T17:02:09.872Z,100106.88
2022-08-03T17:04:40.223Z,100106.59
2022-08-03T17:07:08.810Z,100103.41
2022-08-03T17:09:38.465Z,100103.94
2022-08-03T17:12:06.094Z,100076.69
2022-08-03T17:14:34.404Z,100124.03
2022-08-03T17:17:03.697Z,100097.56
2022-08-03T17:19:32.550Z,100092.72
2022-08-03T17:22:09.022Z,100109.28
2022-08-03T17:24:41.085Z,100099.19
2022-08-03T17:28:50.674Z,100124.06
2022-08-03T17:30:07.793Z,100126.44
2022-08-03T17:32:42.350Z,100134.72
2022-08-03T17:35:10.494Z,100105.72
2022-08-03T17:37:57.495Z,100147.84
2022-08-03T17:40:25.000Z,100106.47
2022-08-03T17:42:52.983Z,100143.34
2022-08-03T17:45:20.624Z,100155.31
2022-08-03T17:47:57.500Z,100139.88
2022-08-03T17:50:37.377Z,100149.84
2022-08-03T17:53:15.577Z,100100.97
2022-08-03T17:56:45.019Z,100151.28
2022-08-03T17:59:08.994Z,100102.97
2022-08-03T18:02:25.188Z,100171.44
2022-08-03T18:05:16.219Z,100119.50
2022-08-03T18:08:03.584Z,100167.41
2022-08-03T18:10:36.161Z,100163.41
2022-08-03T18:13:25.217Z,100173.50
2022-08-03T18:16:02.827Z,100164.75
2022-08-03T18:18:54.876Z,100168.59
2022-08-03T18:21:25.571Z,100175.13
2022-08-03T18:23:54.866Z,100184.63
2022-08-03T18:26:26.501Z,100191.09
2022-08-03T18:28:54.668Z,100181.50
2022-08-03T18:31:33.143Z,100196.56
2022-08-03T18:34:18.078Z,100148.00
2022-08-03T18:37:07.239Z,100198.50
2022-08-03T18:39:49.240Z,100195.00
2022-08-03T18:42:19.950Z,100195.66
2022-08-03T18:44:55.904Z,100191.84
2022-08-03T18:48:02.414Z,100195.25
2022-08-03T18:50:35.852Z,100160.81
2022-08-03T18:53:19.914Z,100210.03
2022-08-03T18:56:02.407Z,100205.44
2022-08-03T18:58:45.103Z,100215.22
2022-08-03T19:01:58.435Z,100217.81
2022-08-03T19:04:20.846Z,100210.78
2022-08-03T19:06:57.802Z,100156.13
2022-08-03T19:09:41.564Z,100174.28
2022-08-03T19:12:28.140Z,100207.44
2022-08-03T19:15:10.525Z,100222.50
2022-08-03T19:17:53.494Z,100218.97
2022-08-03T19:20:24.976Z,100216.69
2022-08-03T19:22:56.397Z,100206.47
2022-08-03T19:25:34.707Z,100232.31
2022-08-03T19:28:06.252Z,100229.31
2022-08-03T19:30:38.783Z,100202.41
2022-08-03T19:33:12.468Z,100214.81
2022-08-03T19:35:55.655Z,100209.59
2022-08-03T19:38:27.444Z,100217.03
2022-08-03T19:40:59.692Z,100226.88
2022-08-03T19:44:07.031Z,100218.34
2022-08-03T19:46:43.622Z,100188.94
2022-08-03T19:49:16.519Z,100219.59
2022-08-03T19:54:45.892Z,100199.47
2022-08-03T19:57:24.603Z,100219.72
2022-08-03T19:59:53.784Z,100188.69
2022-08-03T20:02:26.540Z,100225.72
2022-08-03T20:04:59.776Z,100229.59
2022-08-03T20:07:30.566Z,100210.81
2022-08-03T20:09:59.633Z,100210.66
2022-08-03T20:12:39.153Z,100221.34
2022-08-03T20:15:09.198Z,100206.50
2022-08-03T20:17:54.648Z,100212.97
2022-08-03T20:20:30.048Z,100226.09
2022-08-03T20:22:59.871Z,100215.81
2022-08-03T20:25:38.264Z,100213.34
2022-08-03T20:28:14.259Z,100232.56
2022-08-03T20:30:44.323Z,100242.88
2022-08-03T20:33:18.944Z,100208.88
2022-08-03T20:35:49.325Z,100248.97
2022-08-03T20:38:18.826Z,100243.97
2022-08-03T20:40:47.798Z,100241.91
2022-08-03T20:43:16.565Z,100217.66
2022-08-03T20:45:59.578Z,100241.22
2022-08-03T20:48:37.637Z,100260.69
2022-08-03T20:51:19.673Z,100258.03
2022-08-03T20:53:59.549Z,100267.06
2022-08-03T20:56:32.423Z,100262.84
2022-08-03T20:59:04.830Z,100250.75
2022-08-03T21:01:35.981Z,100222.28
2022-08-03T21:04:09.555Z,100272.34
2022-08-03T21:06:53.313Z,100276.91
2022-08-03T21:09:39.792Z,100255.16
2022-08-03T21:12:12.045Z,100268.75
2022-08-03T21:13:03.089Z,100230.28
2022-08-03T21:14:59.006Z,100278.78
2022-08-03T21:17:40.606Z,100280.78
2022-08-03T21:20:10.875Z,100272.19
2022-08-03T21:22:42.668Z,100268.16
2022-08-03T21:25:11.087Z,100272.56
2022-08-03T21:27:38.202Z,100274.50
2022-08-03T21:30:09.020Z,100259.53
2022-08-03T21:32:40.318Z,100277.88
2022-08-03T21:35:11.159Z,100244.69
2022-08-03T21:37:42.430Z,100277.34
2022-08-03T21:40:12.214Z,100265.97
2022-08-03T21:42:40.361Z,100266.19
2022-08-03T21:45:15.168Z,100270.34
2022-08-03T21:47:44.402Z,100251.88
2022-08-03T21:50:13.442Z,100255.91
2022-08-03T21:52:44.189Z,100229.06
2022-08-03T21:55:18.601Z,100276.81
2022-08-03T21:57:54.092Z,100265.22
2022-08-03T22:00:26.087Z,100222.81
2022-08-03T22:02:56.096Z,100273.34
2022-08-03T22:05:29.083Z,100285.59
2022-08-03T22:08:15.359Z,100269.63
2022-08-03T22:10:46.090Z,100264.59
2022-08-03T22:13:15.235Z,100284.78
2022-08-03T22:15:42.415Z,100289.41
2022-08-03T22:18:10.052Z,100258.00
2022-08-03T22:20:37.399Z,100238.88
2022-08-03T22:23:06.794Z,100258.16
2022-08-03T22:25:36.666Z,100282.72
2022-08-03T22:28:09.649Z,100270.59
2022-08-03T22:30:38.261Z,100256.16
2022-08-03T22:33:11.011Z,100285.88
2022-08-03T22:35:47.376Z,100281.63
2022-08-03T22:38:17.398Z,100279.94
2022-08-03T22:40:45.043Z,100286.13
2022-08-03T22:43:12.271Z,100289.88
2022-08-03T22:46:06.014Z,100291.53
2022-08-03T22:48:27.871Z,100247.97
2022-08-03T22:50:56.214Z,100278.31
2022-08-03T22:53:25.739Z,100294.97
2022-08-03T22:55:52.883Z,100277.25
2022-08-03T22:58:22.790Z,100273.94
2022-08-03T23:01:06.698Z,100288.72
2022-08-03T23:03:59.853Z,100287.91
2022-08-03T23:06:26.718Z,100276.09
2022-08-03T23:08:54.246Z,100299.81
2022-08-03T23:11:23.401Z,100297.41
2022-08-03T23:13:54.174Z,100291.47
2022-08-03T23:16:28.711Z,100273.22
2022-08-03T23:18:59.967Z,100306.69
2022-08-03T23:22:00.293Z,100264.16
2022-08-03T23:24:34.673Z,100292.22
2022-08-03T23:27:06.873Z,100304.53
2022-08-03T23:29:38.608Z,100292.94
2022-08-03T23:32:06.576Z,100290.47
2022-08-03T23:34:52.718Z,100296.75
2022-08-03T23:37:20.735Z,100295.06
2022-08-03T23:39:48.746Z,100278.75
2022-08-03T23:42:19.376Z,100264.25
2022-08-03T23:44:46.847Z,100288.88
2022-08-03T23:47:14.185Z,100306.22
2022-08-03T23:49:41.299Z,100306.34
2022-08-03T23:52:08.271Z,100311.75
2022-08-03T23:55:12.670Z,100316.59
2022-08-03T23:58:00.634Z,100322.09
